Nationale Sud-Ouest - Longue Distance Le Grand Crohot (33) - H

Date : 23/06/2019

Place Nom Licence Catégorie Club Temps CN à J-60 Points Différence Nouveau CN
1 LE ROUX Jacques 2857 H70 3502BR 0:46:56 4318 4957 +639 4513
2 CABON Herve 95 H70 2904BR 0:52:06 4696 4466 -230 4663
3 SCHOLZ Christine 10546 D60 8203OC 0:54:05 3952 4302 +350 3994
4 BLEIN Jean-Louis 411 H70 3203OC 0:55:16 3720 4210 +490 4082
5 DEMONT Francette 386 D60 2408NA 0:56:03 3782 4151 +369 3839
6 DUBROCA Monique 633 D70 3308NA 0:57:10 4207 4070 -137 4208
7 CAMPBELL Jane 17406 D60 7807IF 0:57:47 4039 4027 -12 4212
8 QUEYROI Henri 655 H75 3308NA 0:59:56 4064 3882 -182 3905
9 LAVIELLE Alain 965 H70 4012NA 1:02:41 3251 3712 +461 3496
10 ROBERT Christian 1086 H70 7004BF 1:04:43 2955 3595 +640 3239
11 BAILLEUL Jean-Paul 9165 H70 4012NA 1:04:50 4028 3589 -439 4182
12 ROBERT Martine 1087 D70 7004BF 1:06:00 3303 3525 +222 3477
13 PEREIRA Nadine 1225 D45 4099NA 1:06:03 4681 3523 -1158 4475
14 TESSIER Daniel 2006 H70 7709IF 1:06:18 3901 3509 -392 3887
15 DUBROCA J-Michel 4507 H70 3308NA 1:06:38 3884 3492 -392 3843
16 JEQUEL Yann 3086 H70 4403PL 1:06:56 3074 3476 +402 3236
17 GRAND J-Pierre 1053 H75 1601NA 1:07:01 3596 3472 -124 3492
18 ALLANCON Michel 1005 H70 2906BR 1:08:18 0 3407 3025
19 DOMBROVSKY Florence 25178 D40 3308NA 1:08:41 3128 3388 +260 3141
20 PETIT Guyonne 4372 D65 7808IF 1:08:47 4180 3383 -797 4214
21 NATALI Pierre 1107 H70 8105OC 1:10:21 3291 3307 +16 3354
22 BOULANGER Isabelle 10639 D60 5907HF 1:11:24 3641 3259 -382 3725
23 BARRIN Emilie 23403 D21 8607NA 1:11:31 3114 3253 +139 3320
24 BLASCO Serge 396 H75 3399NA 1:13:46 3384 3154 -230 3384
25 MARTINET Christine 27118 D45 4708NA 1:14:37 2586 3118 +532 2825
26 BOYER Bernard 2294 H70 8702NA 1:14:53 2700 3107 +407 2792
27 LE BIAVANT Laétitia 35626 D40 4705NA 1:17:20 2557 3009 +452 2691
28 THIEBAULT Monique 5033 D70 3318NA 1:18:51 3493 2951 -542 3493
29 DRAULT J-Raymond 4234 H75 8702NA 1:19:12 2579 2938 +359 2597
30 LAZAROWICZ Richard 3600 H70 7512IF 1:19:22 2505 2932 +427 2888
31 DOMENICI J-Claude 1052 H80 1705NA 1:19:44 3141 2918 -223 2958
32 LARMINACH Andre 646 H75 3308NA 1:20:49 3300 2879 -421 3044
33 GUIGNARD Marie 11369 D60 8607NA 1:21:21 2906 2860 -46 2918
34 GARROS Jocelyne 1298 D70 6408NA 1:24:09 2281 2765 +484 2617
35 CABON Monique 96 D65 2904BR 1:24:16 2875 2761 -114 2913
36 BAUDOIN Jean-Paul 16352 H70 1307PZ 1:24:17 4235 2761 -1474 4059
37 QUEYROI Sandra 19862 D45 3308NA 1:28:29 2205 2630 +425 2523
38 DUBOIS Sylvie 14002 D60 7709IF 1:28:32 1871 2628 +757 2274
39 BOELLE Catherine 25433 D60 6408NA 1:28:55 3769 2617 -1152 3787
40 PUJOL Géraldine 36639 D45 3308NA 1:30:57 2634 2558 -76 2819
41 PIGER Albert 116 H80 4504CE 1:32:06 2890 2526 -364 2934
42 BLASCO Nicole 395 D70 3399NA 1:33:17 3277 2494 -783 3348
43 FRANTZ Francoise 6886 D70 2904BR 1:34:41 3035 2457 -578 3038
44 DERAMBURE Laurence 36310 D45 3308NA 1:34:59 1836 2450 +614 1845
45 CAZALA Dominique 14876 D60 3308NA 1:34:59 2457 2450 -7 2639
46 PERROT Catherine 28735 D45 4708NA 1:37:01 2350 2398 +48 2514
47 LANGLOIS Patricia 18147 D60 1799NA 1:37:55 2989 2376 -613 3052
48 GOURVIL Elisabeth 18473 D55 4709NA 1:38:10 1832 2370 +538 2050
49 TESSIER Ariane 2004 D65 7709IF 1:38:27 2770 2363 -407 2807
50 BAUDRY J-Claude 1693 H75 1705NA 1:38:28 2179 2363 +184 2353
51 VALETTE Marion 37838 D35 8607NA 1:38:51 0 2354 1787
52 COCCHIO-JOURNET Céline 37107 D40 4705NA 1:42:53 1929 2261 +332 2649
53 FREDERIQUE Maria-Dolorés 10101 D60 2408NA 1:43:24 2851 2250 -601 2845
54 BEHOTEGUY Bernard 1262 H70 6408NA 1:43:47 2669 2242 -427 2394
55 LEGUEN Joseph 8138 H75 2208BR 1:45:42 2872 2201 -671 2980
56 MOIZANT-DUMORTIER Paola 34497 D45 1905NA 1:46:29 2032 2185 +153 2307
57 LAGOIDET Colette 3619 D80 4012NA 1:47:45 1752 2159 +407 1920
58 NATALI Annie 1106 D70 8105OC 1:52:31 2257 2068 -189 2310
59 BLANCH CARBALLO Anna 20371 D40 4705NA 1:57:06 1658 1987 +329 1820
60 CAU Martine 10313 D60 4504CE 2:00:05 1873 1938 +65 1903
61 CALANDOT Michelle 2927 D65 1403NM 2:01:30 2621 1915 -706 2668
62 PIGER Ghislaine 117 D80 4504CE 2:01:55 2115 1908 -207 2008
63 DEVIC - PAPP Christiane 19463 D65 8203OC 2:03:02 2042 1891 -151 1929
64 GARROS Francis 1297 H70 6408NA 2:51:18 1428 1358 -70 1458
65 LUDEWIG-JAMES Carol 15894 D80 5907HF 2:54:19 1533 1335 -198 1467
66 CARLIER Alain 24331 H70 9109IF 2:55:10 1227 1328 +101 1295
MARTINEZ Catherine 7833 D60 4012NA pm 3298 0 3887
DECLERCQ Anne 36940 D60 8607NA pm 2998 0 3275